Truro, Canada
Current Conditions -  °F | °C
As of 12:00 PM on Wednesday 22 Oct 2014 (Local Time) from CYHZ Reporting Station
Light Rain Light Rain  
Wind Chill: 43°   Ceiling: 3000
Heat Index: 48°   Visibility: 5mi
Dew Point: 48°   Wind: 14mph
Humidity: 100%   Direction: 70°ENE
Pressure: 30.26"   Gusts: 22mph
Location:  45.37°N, 63.29°W
Report Text: CYHZ 221500Z 07012G19KT 5SM -RA BR SCT010 BKN030 OVC090 09/09 A3026 RMK SC3SC4AC1 SLP250
Loading
Personal Weather Stations






























Interactive Weather Map
Tropical Storm Tracking
New forecast layout! Learn more

10-Day Weather Forecast

Advertisements
Track Severe Weather on mobile